sensor_id;sensor_type;location;lat;lon;timestamp;P1;durP1;ratioP1;P2;durP2;ratioP2
5022;SDS011;2530;47.990;7.866;2022-09-12T00:01:47;2.00;;;1.90;;
5022;SDS011;2530;47.990;7.866;2022-09-12T00:04:13;4.60;;;2.20;;
5022;SDS011;2530;47.990;7.866;2022-09-12T00:06:38;3.05;;;2.17;;
5022;SDS011;2530;47.990;7.866;2022-09-12T00:09:08;2.00;;;1.80;;
5022;SDS011;2530;47.990;7.866;2022-09-12T00:11:40;2.00;;;1.77;;
5022;SDS011;2530;47.990;7.866;2022-09-12T00:14:08;2.30;;;2.10;;
5022;SDS011;2530;47.990;7.866;2022-09-12T00:16:37;2.30;;;2.10;;
5022;SDS011;2530;47.990;7.866;2022-09-12T00:19:03;1.87;;;1.77;;
5022;SDS011;2530;47.990;7.866;2022-09-12T00:21:31;2.67;;;2.47;;
5022;SDS011;2530;47.990;7.866;2022-09-12T00:23:58;2.30;;;2.10;;
5022;SDS011;2530;47.990;7.866;2022-09-12T00:26:23;2.63;;;1.90;;
5022;SDS011;2530;47.990;7.866;2022-09-12T00:28:49;2.33;;;2.13;;
5022;SDS011;2530;47.990;7.866;2022-09-12T00:31:16;2.90;;;1.83;;
5022;SDS011;2530;47.990;7.866;2022-09-12T00:33:44;2.25;;;2.15;;
5022;SDS011;2530;47.990;7.866;2022-09-12T00:36:12;2.22;;;1.83;;
5022;SDS011;2530;47.990;7.866;2022-09-12T00:38:43;2.00;;;1.80;;
5022;SDS011;2530;47.990;7.866;2022-09-12T00:41:15;2.60;;;1.97;;
5022;SDS011;2530;47.990;7.866;2022-09-12T00:43:49;2.55;;;1.63;;
5022;SDS011;2530;47.990;7.866;2022-09-12T00:51:35;2.47;;;2.28;;
5022;SDS011;2530;47.990;7.866;2022-09-12T00:54:02;2.45;;;1.92;;
5022;SDS011;2530;47.990;7.866;2022-09-12T00:56:32;2.60;;;1.85;;
5022;SDS011;2530;47.990;7.866;2022-09-12T00:59:01;2.47;;;2.10;;
5022;SDS011;2530;47.990;7.866;2022-09-12T01:01:32;2.27;;;2.07;;
5022;SDS011;2530;47.990;7.866;2022-09-12T01:03:58;1.70;;;1.55;;
5022;SDS011;2530;47.990;7.866;2022-09-12T01:06:35;1.90;;;1.63;;
5022;SDS011;2530;47.990;7.866;2022-09-12T01:09:07;2.35;;;1.92;;
5022;SDS011;2530;47.990;7.866;2022-09-12T01:11:36;2.20;;;1.80;;
5022;SDS011;2530;47.990;7.866;2022-09-12T01:14:03;2.93;;;1.80;;
5022;SDS011;2530;47.990;7.866;2022-09-12T01:16:29;1.77;;;1.67;;
5022;SDS011;2530;47.990;7.866;2022-09-12T01:19:00;2.13;;;1.77;;
5022;SDS011;2530;47.990;7.866;2022-09-12T01:24:36;3.17;;;2.17;;
5022;SDS011;2530;47.990;7.866;2022-09-12T01:35:35;1.63;;;1.52;;
5022;SDS011;2530;47.990;7.866;2022-09-12T01:38:22;2.00;;;1.80;;
5022;SDS011;2530;47.990;7.866;2022-09-12T01:40:58;1.93;;;1.73;;
5022;SDS011;2530;47.990;7.866;2022-09-12T01:46:11;2.30;;;2.10;;
5022;SDS011;2530;47.990;7.866;2022-09-12T01:48:46;2.60;;;1.70;;
5022;SDS011;2530;47.990;7.866;2022-09-12T01:51:22;3.38;;;2.00;;
5022;SDS011;2530;47.990;7.866;2022-09-12T01:54:04;2.90;;;1.63;;
5022;SDS011;2530;47.990;7.866;2022-09-12T01:56:47;1.98;;;1.88;;
5022;SDS011;2530;47.990;7.866;2022-09-12T01:59:17;2.10;;;1.90;;
5022;SDS011;2530;47.990;7.866;2022-09-12T02:01:56;2.15;;;1.95;;
5022;SDS011;2530;47.990;7.866;2022-09-12T02:04:27;1.80;;;1.70;;
5022;SDS011;2530;47.990;7.866;2022-09-12T02:07:15;2.42;;;1.90;;
5022;SDS011;2530;47.990;7.866;2022-09-12T02:09:56;1.70;;;1.60;;
5022;SDS011;2530;47.990;7.866;2022-09-12T02:12:28;1.90;;;1.80;;
5022;SDS011;2530;47.990;7.866;2022-09-12T02:15:03;2.17;;;1.98;;
5022;SDS011;2530;47.990;7.866;2022-09-12T02:17:34;2.87;;;1.93;;
5022;SDS011;2530;47.990;7.866;2022-09-12T02:20:06;3.55;;;2.20;;
5022;SDS011;2530;47.990;7.866;2022-09-12T02:22:36;2.10;;;1.90;;
5022;SDS011;2530;47.990;7.866;2022-09-12T02:25:03;2.90;;;2.50;;
5022;SDS011;2530;47.990;7.866;2022-09-12T02:27:35;2.72;;;2.10;;
5022;SDS011;2530;47.990;7.866;2022-09-12T02:30:08;2.10;;;2.00;;
5022;SDS011;2530;47.990;7.866;2022-09-12T02:38:16;2.47;;;2.03;;
5022;SDS011;2530;47.990;7.866;2022-09-12T02:41:06;2.10;;;1.90;;
5022;SDS011;2530;47.990;7.866;2022-09-12T02:43:32;2.75;;;2.00;;
5022;SDS011;2530;47.990;7.866;2022-09-12T02:45:58;2.08;;;1.90;;
5022;SDS011;2530;47.990;7.866;2022-09-12T02:48:28;2.60;;;2.37;;
5022;SDS011;2530;47.990;7.866;2022-09-12T02:50:57;3.30;;;2.20;;
5022;SDS011;2530;47.990;7.866;2022-09-12T02:53:25;2.10;;;2.00;;
5022;SDS011;2530;47.990;7.866;2022-09-12T02:55:51;2.10;;;1.90;;
5022;SDS011;2530;47.990;7.866;2022-09-12T02:58:18;2.33;;;2.13;;
5022;SDS011;2530;47.990;7.866;2022-09-12T03:00:49;2.25;;;2.05;;
5022;SDS011;2530;47.990;7.866;2022-09-12T03:06:29;2.80;;;2.40;;
5022;SDS011;2530;47.990;7.866;2022-09-12T03:09:22;2.15;;;1.95;;
5022;SDS011;2530;47.990;7.866;2022-09-12T03:15:05;2.10;;;2.00;;
5022;SDS011;2530;47.990;7.866;2022-09-12T03:18:05;3.28;;;1.92;;
5022;SDS011;2530;47.990;7.866;2022-09-12T03:26:11;3.30;;;2.03;;
5022;SDS011;2530;47.990;7.866;2022-09-12T03:28:44;2.60;;;2.40;;
5022;SDS011;2530;47.990;7.866;2022-09-12T03:31:13;3.30;;;2.20;;
5022;SDS011;2530;47.990;7.866;2022-09-12T03:33:43;2.40;;;2.20;;
5022;SDS011;2530;47.990;7.866;2022-09-12T03:36:14;2.40;;;2.20;;
5022;SDS011;2530;47.990;7.866;2022-09-12T03:38:41;2.50;;;2.30;;
5022;SDS011;2530;47.990;7.866;2022-09-12T03:41:07;2.50;;;1.97;;
5022;SDS011;2530;47.990;7.866;2022-09-12T03:43:32;2.72;;;2.53;;
5022;SDS011;2530;47.990;7.866;2022-09-12T03:45:58;2.58;;;2.38;;
5022;SDS011;2530;47.990;7.866;2022-09-12T03:48:23;3.40;;;2.30;;
5022;SDS011;2530;47.990;7.866;2022-09-12T03:50:49;4.70;;;2.13;;
5022;SDS011;2530;47.990;7.866;2022-09-12T03:53:15;2.30;;;2.10;;
5022;SDS011;2530;47.990;7.866;2022-09-12T03:55:40;2.22;;;2.03;;
5022;SDS011;2530;47.990;7.866;2022-09-12T03:58:06;2.97;;;2.20;;
5022;SDS011;2530;47.990;7.866;2022-09-12T04:00:31;2.47;;;2.27;;
5022;SDS011;2530;47.990;7.866;2022-09-12T04:02:57;3.20;;;2.90;;
5022;SDS011;2530;47.990;7.866;2022-09-12T04:05:23;2.30;;;2.10;;
5022;SDS011;2530;47.990;7.866;2022-09-12T04:07:49;2.90;;;2.53;;
5022;SDS011;2530;47.990;7.866;2022-09-12T04:10:15;3.00;;;2.47;;
5022;SDS011;2530;47.990;7.866;2022-09-12T04:12:41;2.55;;;2.35;;
5022;SDS011;2530;47.990;7.866;2022-09-12T04:15:07;2.90;;;2.15;;
5022;SDS011;2530;47.990;7.866;2022-09-12T04:17:33;2.20;;;2.00;;
5022;SDS011;2530;47.990;7.866;2022-09-12T04:19:59;2.40;;;2.20;;
5022;SDS011;2530;47.990;7.866;2022-09-12T04:22:24;2.40;;;2.00;;
5022;SDS011;2530;47.990;7.866;2022-09-12T04:24:50;2.40;;;2.20;;
5022;SDS011;2530;47.990;7.866;2022-09-12T04:27:16;2.78;;;2.00;;
5022;SDS011;2530;47.990;7.866;2022-09-12T04:29:41;2.60;;;2.40;;
5022;SDS011;2530;47.990;7.866;2022-09-12T04:32:07;2.40;;;2.20;;
5022;SDS011;2530;47.990;7.866;2022-09-12T04:34:33;3.25;;;2.10;;
5022;SDS011;2530;47.990;7.866;2022-09-12T04:36:59;4.15;;;2.83;;
5022;SDS011;2530;47.990;7.866;2022-09-12T04:39:25;2.75;;;2.33;;
5022;SDS011;2530;47.990;7.866;2022-09-12T04:41:50;3.20;;;2.40;;
5022;SDS011;2530;47.990;7.866;2022-09-12T04:44:16;2.90;;;2.60;;
5022;SDS011;2530;47.990;7.866;2022-09-12T04:46:42;2.37;;;2.17;;
5022;SDS011;2530;47.990;7.866;2022-09-12T04:49:10;3.40;;;3.10;;
5022;SDS011;2530;47.990;7.866;2022-09-12T04:51:37;3.67;;;2.03;;
5022;SDS011;2530;47.990;7.866;2022-09-12T04:54:10;2.40;;;2.20;;
5022;SDS011;2530;47.990;7.866;2022-09-12T04:56:38;4.82;;;2.55;;
5022;SDS011;2530;47.990;7.866;2022-09-12T04:59:05;2.70;;;2.30;;
5022;SDS011;2530;47.990;7.866;2022-09-12T05:01:31;3.15;;;2.40;;
5022;SDS011;2530;47.990;7.866;2022-09-12T05:03:57;2.70;;;2.08;;
5022;SDS011;2530;47.990;7.866;2022-09-12T05:06:25;4.07;;;2.58;;
5022;SDS011;2530;47.990;7.866;2022-09-12T05:08:53;2.40;;;1.90;;
5022;SDS011;2530;47.990;7.866;2022-09-12T05:11:20;2.38;;;2.17;;
5022;SDS011;2530;47.990;7.866;2022-09-12T05:13:48;2.30;;;2.10;;
5022;SDS011;2530;47.990;7.866;2022-09-12T05:16:14;2.30;;;2.10;;
5022;SDS011;2530;47.990;7.866;2022-09-12T05:18:41;2.10;;;1.90;;
5022;SDS011;2530;47.990;7.866;2022-09-12T05:21:09;2.60;;;2.10;;
5022;SDS011;2530;47.990;7.866;2022-09-12T05:23:36;2.80;;;1.90;;
5022;SDS011;2530;47.990;7.866;2022-09-12T05:26:02;2.70;;;2.13;;
5022;SDS011;2530;47.990;7.866;2022-09-12T05:28:30;3.85;;;2.45;;
5022;SDS011;2530;47.990;7.866;2022-09-12T05:30:58;3.20;;;2.90;;
5022;SDS011;2530;47.990;7.866;2022-09-12T05:33:48;2.40;;;2.20;;
5022;SDS011;2530;47.990;7.866;2022-09-12T05:36:18;2.83;;;2.57;;
5022;SDS011;2530;47.990;7.866;2022-09-12T05:38:49;3.00;;;2.30;;
5022;SDS011;2530;47.990;7.866;2022-09-12T05:41:15;3.05;;;2.45;;
5022;SDS011;2530;47.990;7.866;2022-09-12T05:43:45;2.92;;;2.50;;
5022;SDS011;2530;47.990;7.866;2022-09-12T05:46:15;2.60;;;2.40;;
5022;SDS011;2530;47.990;7.866;2022-09-12T05:48:43;4.63;;;2.60;;
5022;SDS011;2530;47.990;7.866;2022-09-12T05:51:11;3.80;;;3.40;;
5022;SDS011;2530;47.990;7.866;2022-09-12T05:53:41;5.20;;;2.70;;
5022;SDS011;2530;47.990;7.866;2022-09-12T05:56:07;5.40;;;2.80;;
5022;SDS011;2530;47.990;7.866;2022-09-12T05:58:35;4.60;;;2.75;;
5022;SDS011;2530;47.990;7.866;2022-09-12T06:01:07;3.25;;;2.85;;
5022;SDS011;2530;47.990;7.866;2022-09-12T06:03:38;3.88;;;3.45;;
5022;SDS011;2530;47.990;7.866;2022-09-12T06:06:05;4.00;;;3.47;;
5022;SDS011;2530;47.990;7.866;2022-09-12T06:08:32;3.13;;;2.83;;
5022;SDS011;2530;47.990;7.866;2022-09-12T06:11:02;4.80;;;3.38;;
5022;SDS011;2530;47.990;7.866;2022-09-12T06:13:32;3.85;;;3.45;;
5022;SDS011;2530;47.990;7.866;2022-09-12T06:16:04;4.60;;;3.17;;
5022;SDS011;2530;47.990;7.866;2022-09-12T06:18:34;4.18;;;3.15;;
5022;SDS011;2530;47.990;7.866;2022-09-12T06:21:02;3.55;;;2.53;;
5022;SDS011;2530;47.990;7.866;2022-09-12T06:23:28;3.88;;;2.78;;
5022;SDS011;2530;47.990;7.866;2022-09-12T06:25:54;2.45;;;2.10;;
5022;SDS011;2530;47.990;7.866;2022-09-12T06:28:20;3.00;;;2.60;;
5022;SDS011;2530;47.990;7.866;2022-09-12T06:30:45;3.50;;;2.20;;
5022;SDS011;2530;47.990;7.866;2022-09-12T06:33:11;2.63;;;2.42;;
5022;SDS011;2530;47.990;7.866;2022-09-12T06:35:37;2.72;;;2.20;;
5022;SDS011;2530;47.990;7.866;2022-09-12T06:38:03;2.95;;;2.50;;
5022;SDS011;2530;47.990;7.866;2022-09-12T06:40:29;2.20;;;2.00;;
5022;SDS011;2530;47.990;7.866;2022-09-12T06:42:55;2.25;;;2.05;;
5022;SDS011;2530;47.990;7.866;2022-09-12T06:45:21;2.58;;;2.08;;
5022;SDS011;2530;47.990;7.866;2022-09-12T06:47:46;2.10;;;2.00;;
5022;SDS011;2530;47.990;7.866;2022-09-12T06:50:12;2.20;;;2.00;;
5022;SDS011;2530;47.990;7.866;2022-09-12T06:52:38;2.13;;;2.00;;
5022;SDS011;2530;47.990;7.866;2022-09-12T06:55:03;2.22;;;2.03;;
5022;SDS011;2530;47.990;7.866;2022-09-12T06:57:29;2.75;;;2.10;;
5022;SDS011;2530;47.990;7.866;2022-09-12T06:59:56;2.33;;;1.80;;
5022;SDS011;2530;47.990;7.866;2022-09-12T07:02:22;3.33;;;1.92;;
5022;SDS011;2530;47.990;7.866;2022-09-12T07:04:49;13.73;;;9.15;;
5022;SDS011;2530;47.990;7.866;2022-09-12T07:07:15;14.65;;;9.27;;
5022;SDS011;2530;47.990;7.866;2022-09-12T07:09:41;2.63;;;1.95;;
5022;SDS011;2530;47.990;7.866;2022-09-12T07:12:07;3.00;;;2.30;;
5022;SDS011;2530;47.990;7.866;2022-09-12T07:14:32;2.50;;;2.30;;
5022;SDS011;2530;47.990;7.866;2022-09-12T07:16:58;2.80;;;2.20;;
5022;SDS011;2530;47.990;7.866;2022-09-12T07:19:24;4.30;;;2.40;;
5022;SDS011;2530;47.990;7.866;2022-09-12T07:21:49;2.40;;;2.20;;
5022;SDS011;2530;47.990;7.866;2022-09-12T07:24:15;3.17;;;2.87;;
5022;SDS011;2530;47.990;7.866;2022-09-12T07:26:40;4.60;;;3.13;;
5022;SDS011;2530;47.990;7.866;2022-09-12T07:29:06;5.70;;;3.50;;
5022;SDS011;2530;47.990;7.866;2022-09-12T07:31:37;3.90;;;3.50;;
5022;SDS011;2530;47.990;7.866;2022-09-12T07:34:06;3.90;;;3.50;;
5022;SDS011;2530;47.990;7.866;2022-09-12T07:36:31;4.10;;;3.70;;
5022;SDS011;2530;47.990;7.866;2022-09-12T07:38:57;3.80;;;3.40;;
5022;SDS011;2530;47.990;7.866;2022-09-12T07:41:24;5.50;;;3.50;;
5022;SDS011;2530;47.990;7.866;2022-09-12T07:43:52;5.95;;;3.35;;
5022;SDS011;2530;47.990;7.866;2022-09-12T07:46:20;3.78;;;3.35;;
5022;SDS011;2530;47.990;7.866;2022-09-12T07:48:49;3.20;;;2.90;;
5022;SDS011;2530;47.990;7.866;2022-09-12T07:51:16;3.70;;;2.92;;
5022;SDS011;2530;47.990;7.866;2022-09-12T07:53:42;3.20;;;2.90;;
5022;SDS011;2530;47.990;7.866;2022-09-12T07:56:08;3.72;;;3.20;;
5022;SDS011;2530;47.990;7.866;2022-09-12T07:58:35;4.07;;;3.53;;
5022;SDS011;2530;47.990;7.866;2022-09-12T08:01:03;3.78;;;3.30;;
5022;SDS011;2530;47.990;7.866;2022-09-12T08:03:51;3.67;;;2.80;;
5022;SDS011;2530;47.990;7.866;2022-09-12T08:06:19;4.50;;;3.17;;
5022;SDS011;2530;47.990;7.866;2022-09-12T08:08:55;4.32;;;2.78;;
5022;SDS011;2530;47.990;7.866;2022-09-12T08:11:22;2.97;;;2.78;;
5022;SDS011;2530;47.990;7.866;2022-09-12T08:13:50;3.15;;;2.85;;
5022;SDS011;2530;47.990;7.866;2022-09-12T08:16:18;3.60;;;3.00;;
5022;SDS011;2530;47.990;7.866;2022-09-12T08:18:46;3.28;;;2.97;;
5022;SDS011;2530;47.990;7.866;2022-09-12T08:21:13;4.40;;;3.38;;
5022;SDS011;2530;47.990;7.866;2022-09-12T08:23:41;6.07;;;3.78;;
5022;SDS011;2530;47.990;7.866;2022-09-12T08:26:08;4.80;;;3.90;;
5022;SDS011;2530;47.990;7.866;2022-09-12T08:28:35;5.57;;;3.65;;
5022;SDS011;2530;47.990;7.866;2022-09-12T08:31:02;3.80;;;3.50;;
5022;SDS011;2530;47.990;7.866;2022-09-12T08:33:33;4.78;;;3.50;;
5022;SDS011;2530;47.990;7.866;2022-09-12T08:38:29;4.70;;;3.60;;
5022;SDS011;2530;47.990;7.866;2022-09-12T08:49:12;5.38;;;3.85;;
5022;SDS011;2530;47.990;7.866;2022-09-12T08:51:46;3.80;;;3.40;;
5022;SDS011;2530;47.990;7.866;2022-09-12T08:54:18;5.38;;;3.20;;
5022;SDS011;2530;47.990;7.866;2022-09-12T08:56:47;6.53;;;3.67;;
5022;SDS011;2530;47.990;7.866;2022-09-12T08:59:13;3.30;;;3.00;;
5022;SDS011;2530;47.990;7.866;2022-09-12T09:01:40;3.33;;;3.03;;
5022;SDS011;2530;47.990;7.866;2022-09-12T09:17:37;3.53;;;3.22;;
5022;SDS011;2530;47.990;7.866;2022-09-12T09:20:11;2.83;;;2.60;;
5022;SDS011;2530;47.990;7.866;2022-09-12T09:25:18;3.78;;;2.92;;
5022;SDS011;2530;47.990;7.866;2022-09-12T09:28:03;3.03;;;2.72;;
5022;SDS011;2530;47.990;7.866;2022-09-12T09:30:35;2.78;;;2.58;;
5022;SDS011;2530;47.990;7.866;2022-09-12T09:33:02;5.00;;;3.10;;
5022;SDS011;2530;47.990;7.866;2022-09-12T09:43:52;4.65;;;3.10;;
5022;SDS011;2530;47.990;7.866;2022-09-12T09:46:17;2.60;;;2.40;;
5022;SDS011;2530;47.990;7.866;2022-09-12T09:48:44;3.20;;;2.90;;
5022;SDS011;2530;47.990;7.866;2022-09-12T09:51:12;3.63;;;2.60;;
5022;SDS011;2530;47.990;7.866;2022-09-12T09:53:55;4.07;;;2.97;;
5022;SDS011;2530;47.990;7.866;2022-09-12T09:56:32;3.47;;;2.80;;
5022;SDS011;2530;47.990;7.866;2022-09-12T09:59:07;3.50;;;2.63;;
5022;SDS011;2530;47.990;7.866;2022-09-12T10:01:33;2.80;;;2.60;;
5022;SDS011;2530;47.990;7.866;2022-09-12T10:03:59;2.80;;;2.60;;
5022;SDS011;2530;47.990;7.866;2022-09-12T10:06:27;3.10;;;2.40;;
5022;SDS011;2530;47.990;7.866;2022-09-12T10:09:04;2.60;;;2.40;;
5022;SDS011;2530;47.990;7.866;2022-09-12T10:11:37;2.70;;;2.30;;
5022;SDS011;2530;47.990;7.866;2022-09-12T10:14:03;4.13;;;2.60;;
5022;SDS011;2530;47.990;7.866;2022-09-12T10:16:47;2.50;;;2.25;;
5022;SDS011;2530;47.990;7.866;2022-09-12T10:19:22;2.83;;;2.10;;
5022;SDS011;2530;47.990;7.866;2022-09-12T10:21:56;2.50;;;2.30;;
5022;SDS011;2530;47.990;7.866;2022-09-12T10:24:25;2.40;;;2.20;;
5022;SDS011;2530;47.990;7.866;2022-09-12T10:26:57;1.70;;;1.60;;
5022;SDS011;2530;47.990;7.866;2022-09-12T10:29:30;2.25;;;2.05;;
5022;SDS011;2530;47.990;7.866;2022-09-12T10:31:58;2.38;;;1.80;;
5022;SDS011;2530;47.990;7.866;2022-09-12T10:34:29;2.20;;;1.70;;
5022;SDS011;2530;47.990;7.866;2022-09-12T10:37:09;3.27;;;2.00;;
5022;SDS011;2530;47.990;7.866;2022-09-12T10:39:48;2.20;;;2.00;;
5022;SDS011;2530;47.990;7.866;2022-09-12T10:45:28;2.13;;;1.92;;
5022;SDS011;2530;47.990;7.866;2022-09-12T10:50:49;2.70;;;2.20;;
5022;SDS011;2530;47.990;7.866;2022-09-12T10:53:17;2.63;;;2.00;;
5022;SDS011;2530;47.990;7.866;2022-09-12T11:01:47;2.17;;;1.92;;
5022;SDS011;2530;47.990;7.866;2022-09-12T11:04:33;2.10;;;1.90;;
5022;SDS011;2530;47.990;7.866;2022-09-12T11:18:42;2.35;;;1.92;;
5022;SDS011;2530;47.990;7.866;2022-09-12T11:27:11;2.30;;;2.10;;
5022;SDS011;2530;47.990;7.866;2022-09-12T11:30:06;3.08;;;1.90;;
5022;SDS011;2530;47.990;7.866;2022-09-12T11:35:32;1.50;;;1.40;;
5022;SDS011;2530;47.990;7.866;2022-09-12T11:38:07;2.45;;;1.92;;
5022;SDS011;2530;47.990;7.866;2022-09-12T11:40:59;2.00;;;1.90;;
5022;SDS011;2530;47.990;7.866;2022-09-12T11:43:40;3.00;;;1.92;;
5022;SDS011;2530;47.990;7.866;2022-09-12T11:46:18;2.05;;;1.85;;
5022;SDS011;2530;47.990;7.866;2022-09-12T11:51:31;2.00;;;1.70;;
5022;SDS011;2530;47.990;7.866;2022-09-12T11:56:39;2.10;;;1.73;;
5022;SDS011;2530;47.990;7.866;2022-09-12T11:59:29;1.98;;;1.80;;
5022;SDS011;2530;47.990;7.866;2022-09-12T12:07:55;1.60;;;1.50;;
5022;SDS011;2530;47.990;7.866;2022-09-12T12:10:24;1.77;;;1.60;;
5022;SDS011;2530;47.990;7.866;2022-09-12T12:18:31;2.20;;;1.88;;
5022;SDS011;2530;47.990;7.866;2022-09-12T12:21:20;1.95;;;1.60;;
5022;SDS011;2530;47.990;7.866;2022-09-12T12:44:59;1.90;;;1.63;;
5022;SDS011;2530;47.990;7.866;2022-09-12T12:50:02;1.70;;;1.60;;
5022;SDS011;2530;47.990;7.866;2022-09-12T12:52:45;2.90;;;1.70;;
5022;SDS011;2530;47.990;7.866;2022-09-12T12:55:16;1.80;;;1.50;;
5022;SDS011;2530;47.990;7.866;2022-09-12T12:57:53;3.30;;;1.40;;
5022;SDS011;2530;47.990;7.866;2022-09-12T13:00:24;1.50;;;1.40;;
5022;SDS011;2530;47.990;7.866;2022-09-12T13:02:59;2.10;;;1.40;;
5022;SDS011;2530;47.990;7.866;2022-09-12T13:05:44;1.90;;;1.70;;
5022;SDS011;2530;47.990;7.866;2022-09-12T13:10:47;1.40;;;1.30;;
5022;SDS011;2530;47.990;7.866;2022-09-12T13:13:24;2.00;;;1.50;;
5022;SDS011;2530;47.990;7.866;2022-09-12T13:19:14;1.60;;;1.50;;
5022;SDS011;2530;47.990;7.866;2022-09-12T13:24:43;1.88;;;1.67;;
5022;SDS011;2530;47.990;7.866;2022-09-12T13:27:29;2.00;;;1.70;;
5022;SDS011;2530;47.990;7.866;2022-09-12T13:30:07;1.73;;;1.63;;
5022;SDS011;2530;47.990;7.866;2022-09-12T13:32:37;1.90;;;1.30;;
5022;SDS011;2530;47.990;7.866;2022-09-12T13:43:17;1.70;;;1.60;;
5022;SDS011;2530;47.990;7.866;2022-09-12T13:45:53;2.53;;;1.80;;
5022;SDS011;2530;47.990;7.866;2022-09-12T13:48:19;1.95;;;1.70;;
5022;SDS011;2530;47.990;7.866;2022-09-12T13:50:49;2.70;;;1.40;;
5022;SDS011;2530;47.990;7.866;2022-09-12T13:53:24;1.90;;;1.50;;
5022;SDS011;2530;47.990;7.866;2022-09-12T13:55:56;2.00;;;1.55;;
5022;SDS011;2530;47.990;7.866;2022-09-12T14:01:06;1.90;;;1.80;;
5022;SDS011;2530;47.990;7.866;2022-09-12T14:03:38;2.10;;;1.50;;
5022;SDS011;2530;47.990;7.866;2022-09-12T14:06:24;1.70;;;1.60;;
5022;SDS011;2530;47.990;7.866;2022-09-12T14:08:51;1.90;;;1.80;;
5022;SDS011;2530;47.990;7.866;2022-09-12T14:11:25;1.50;;;1.40;;
5022;SDS011;2530;47.990;7.866;2022-09-12T14:13:52;2.40;;;1.70;;
5022;SDS011;2530;47.990;7.866;2022-09-12T14:16:19;3.03;;;1.80;;
5022;SDS011;2530;47.990;7.866;2022-09-12T14:18:47;2.80;;;1.60;;
5022;SDS011;2530;47.990;7.866;2022-09-12T14:21:31;1.63;;;1.52;;
5022;SDS011;2530;47.990;7.866;2022-09-12T14:23:58;1.92;;;1.50;;
5022;SDS011;2530;47.990;7.866;2022-09-12T14:26:26;1.60;;;1.50;;
5022;SDS011;2530;47.990;7.866;2022-09-12T14:28:56;2.47;;;1.43;;
5022;SDS011;2530;47.990;7.866;2022-09-12T14:31:23;2.40;;;1.20;;
5022;SDS011;2530;47.990;7.866;2022-09-12T14:34:07;1.40;;;1.30;;
5022;SDS011;2530;47.990;7.866;2022-09-12T14:36:42;2.00;;;1.60;;
5022;SDS011;2530;47.990;7.866;2022-09-12T14:39:30;1.88;;;1.40;;
5022;SDS011;2530;47.990;7.866;2022-09-12T14:42:05;1.40;;;1.30;;
5022;SDS011;2530;47.990;7.866;2022-09-12T14:44:37;1.38;;;1.27;;
5022;SDS011;2530;47.990;7.866;2022-09-12T14:47:12;2.50;;;1.30;;
5022;SDS011;2530;47.990;7.866;2022-09-12T14:49:43;1.60;;;1.50;;
5022;SDS011;2530;47.990;7.866;2022-09-12T14:54:58;1.50;;;1.40;;
5022;SDS011;2530;47.990;7.866;2022-09-12T14:57:32;1.60;;;1.50;;
5022;SDS011;2530;47.990;7.866;2022-09-12T15:02:38;1.50;;;1.40;;
5022;SDS011;2530;47.990;7.866;2022-09-12T15:12:34;2.80;;;1.30;;
5022;SDS011;2530;47.990;7.866;2022-09-12T15:15:06;1.50;;;1.30;;
5022;SDS011;2530;47.990;7.866;2022-09-12T15:17:38;2.27;;;1.37;;
5022;SDS011;2530;47.990;7.866;2022-09-12T15:20:04;1.10;;;1.10;;
5022;SDS011;2530;47.990;7.866;2022-09-12T15:22:30;2.40;;;1.30;;
5022;SDS011;2530;47.990;7.866;2022-09-12T15:24:57;1.40;;;1.30;;
5022;SDS011;2530;47.990;7.866;2022-09-12T15:27:23;1.50;;;1.40;;
5022;SDS011;2530;47.990;7.866;2022-09-12T15:29:50;1.40;;;1.20;;
5022;SDS011;2530;47.990;7.866;2022-09-12T15:32:25;1.53;;;1.30;;
5022;SDS011;2530;47.990;7.866;2022-09-12T15:34:53;1.30;;;1.20;;
5022;SDS011;2530;47.990;7.866;2022-09-12T15:37:19;1.87;;;1.30;;
5022;SDS011;2530;47.990;7.866;2022-09-12T15:39:46;1.33;;;1.23;;
5022;SDS011;2530;47.990;7.866;2022-09-12T15:42:12;1.35;;;1.25;;
5022;SDS011;2530;47.990;7.866;2022-09-12T15:44:39;1.33;;;1.23;;
5022;SDS011;2530;47.990;7.866;2022-09-12T15:47:05;1.60;;;1.50;;
5022;SDS011;2530;47.990;7.866;2022-09-12T15:49:30;1.63;;;1.20;;
5022;SDS011;2530;47.990;7.866;2022-09-12T15:51:56;2.22;;;1.40;;
5022;SDS011;2530;47.990;7.866;2022-09-12T15:54:23;2.00;;;1.30;;
5022;SDS011;2530;47.990;7.866;2022-09-12T15:56:48;2.20;;;1.20;;
5022;SDS011;2530;47.990;7.866;2022-09-12T15:59:14;1.50;;;1.40;;
5022;SDS011;2530;47.990;7.866;2022-09-12T16:01:39;1.50;;;1.40;;
5022;SDS011;2530;47.990;7.866;2022-09-12T16:04:17;1.70;;;1.30;;
5022;SDS011;2530;47.990;7.866;2022-09-12T16:06:48;1.70;;;1.30;;
5022;SDS011;2530;47.990;7.866;2022-09-12T16:09:14;1.25;;;1.15;;
5022;SDS011;2530;47.990;7.866;2022-09-12T16:11:39;1.30;;;1.20;;
5022;SDS011;2530;47.990;7.866;2022-09-12T16:14:05;1.80;;;1.15;;
5022;SDS011;2530;47.990;7.866;2022-09-12T16:16:31;2.50;;;1.13;;
5022;SDS011;2530;47.990;7.866;2022-09-12T16:18:57;1.90;;;1.00;;
5022;SDS011;2530;47.990;7.866;2022-09-12T16:21:22;1.70;;;1.20;;
5022;SDS011;2530;47.990;7.866;2022-09-12T16:23:48;1.30;;;1.20;;
5022;SDS011;2530;47.990;7.866;2022-09-12T16:26:14;1.07;;;0.97;;
5022;SDS011;2530;47.990;7.866;2022-09-12T16:28:41;1.20;;;1.10;;
5022;SDS011;2530;47.990;7.866;2022-09-12T16:31:08;2.70;;;1.10;;
5022;SDS011;2530;47.990;7.866;2022-09-12T16:33:36;1.08;;;0.98;;
5022;SDS011;2530;47.990;7.866;2022-09-12T16:36:12;0.93;;;0.90;;
5022;SDS011;2530;47.990;7.866;2022-09-12T16:38:39;1.50;;;1.00;;
5022;SDS011;2530;47.990;7.866;2022-09-12T16:41:10;0.98;;;0.88;;
5022;SDS011;2530;47.990;7.866;2022-09-12T16:43:36;1.77;;;1.00;;
5022;SDS011;2530;47.990;7.866;2022-09-12T16:46:03;1.00;;;0.90;;
5022;SDS011;2530;47.990;7.866;2022-09-12T16:48:33;0.90;;;0.90;;
5022;SDS011;2530;47.990;7.866;2022-09-12T16:51:00;3.33;;;0.98;;
5022;SDS011;2530;47.990;7.866;2022-09-12T16:53:31;1.10;;;0.90;;
5022;SDS011;2530;47.990;7.866;2022-09-12T16:55:58;1.25;;;0.95;;
5022;SDS011;2530;47.990;7.866;2022-09-12T16:58:24;1.10;;;1.00;;
5022;SDS011;2530;47.990;7.866;2022-09-12T17:01:00;11.25;;;4.70;;
5022;SDS011;2530;47.990;7.866;2022-09-12T17:03:27;7.57;;;3.50;;
5022;SDS011;2530;47.990;7.866;2022-09-12T17:05:59;2.33;;;1.57;;
5022;SDS011;2530;47.990;7.866;2022-09-12T17:08:27;1.40;;;1.30;;
5022;SDS011;2530;47.990;7.866;2022-09-12T17:11:04;2.80;;;1.60;;
5022;SDS011;2530;47.990;7.866;2022-09-12T17:13:33;1.50;;;1.10;;
5022;SDS011;2530;47.990;7.866;2022-09-12T17:15:59;1.70;;;1.17;;
5022;SDS011;2530;47.990;7.866;2022-09-12T17:18:30;1.60;;;1.40;;
5022;SDS011;2530;47.990;7.866;2022-09-12T17:20:55;1.90;;;1.60;;
5022;SDS011;2530;47.990;7.866;2022-09-12T17:23:21;3.00;;;1.40;;
5022;SDS011;2530;47.990;7.866;2022-09-12T17:25:47;2.80;;;1.40;;
5022;SDS011;2530;47.990;7.866;2022-09-12T17:28:13;2.10;;;1.40;;
5022;SDS011;2530;47.990;7.866;2022-09-12T17:30:39;1.70;;;1.60;;
5022;SDS011;2530;47.990;7.866;2022-09-12T17:33:05;3.20;;;1.70;;
5022;SDS011;2530;47.990;7.866;2022-09-12T17:35:34;2.10;;;1.50;;
5022;SDS011;2530;47.990;7.866;2022-09-12T17:38:00;2.70;;;1.30;;
5022;SDS011;2530;47.990;7.866;2022-09-12T17:40:26;1.80;;;1.67;;
5022;SDS011;2530;47.990;7.866;2022-09-12T17:42:52;1.55;;;1.40;;
5022;SDS011;2530;47.990;7.866;2022-09-12T17:45:18;5.20;;;2.10;;
5022;SDS011;2530;47.990;7.866;2022-09-12T17:47:43;1.60;;;1.30;;
5022;SDS011;2530;47.990;7.866;2022-09-12T17:50:09;4.78;;;1.52;;
5022;SDS011;2530;47.990;7.866;2022-09-12T17:52:34;1.10;;;1.00;;
5022;SDS011;2530;47.990;7.866;2022-09-12T17:55:00;7.20;;;1.50;;
5022;SDS011;2530;47.990;7.866;2022-09-12T17:57:26;1.95;;;1.27;;
5022;SDS011;2530;47.990;7.866;2022-09-12T17:59:52;3.38;;;1.58;;
5022;SDS011;2530;47.990;7.866;2022-09-12T18:02:17;3.13;;;1.50;;
5022;SDS011;2530;47.990;7.866;2022-09-12T18:04:44;1.30;;;1.20;;
5022;SDS011;2530;47.990;7.866;2022-09-12T18:07:10;2.67;;;1.58;;
5022;SDS011;2530;47.990;7.866;2022-09-12T18:09:37;1.60;;;1.30;;
5022;SDS011;2530;47.990;7.866;2022-09-12T18:12:03;1.43;;;1.33;;
5022;SDS011;2530;47.990;7.866;2022-09-12T18:14:29;1.30;;;1.10;;
5022;SDS011;2530;47.990;7.866;2022-09-12T18:16:54;1.60;;;1.40;;
5022;SDS011;2530;47.990;7.866;2022-09-12T18:19:21;1.60;;;1.33;;
5022;SDS011;2530;47.990;7.866;2022-09-12T18:21:47;2.00;;;1.40;;
5022;SDS011;2530;47.990;7.866;2022-09-12T18:24:13;2.38;;;1.52;;
5022;SDS011;2530;47.990;7.866;2022-09-12T18:26:38;2.03;;;1.40;;
5022;SDS011;2530;47.990;7.866;2022-09-12T18:29:04;2.13;;;1.60;;